Time;durP1;ratioP1;P1;durP2;ratioP2;P2;SDS_P1;SDS_P2;PMS_P1;PMS_P2;Temp;Humidity;BMP_temperature;BMP_pressure;BME280_temperature;BME280_humidity;BME280_pressure;Samples;Min_cycle;Max_cycle;Signal;HPM_P1;HPM_P2
2022/02/19 00:00:54;;;;;;;10.25;2.03;;;;;;;5.17;61.76;100443.00;5044289;28;20027;-61
2022/02/19 00:03:19;;;;;;;20.98;3.22;;;;;;;5.20;62.07;100394.22;5043707;28;20166;-62
2022/02/19 00:05:45;;;;;;;19.38;2.88;;;;;;;5.13;62.25;100389.09;5044719;28;20128;-63
2022/02/19 00:08:13;;;;;;;20.25;2.40;;;;;;;5.13;62.25;100393.44;5043015;28;20526;-62
2022/02/19 00:10:38;;;;;;;18.63;3.20;;;;;;;5.03;62.87;100393.63;5044401;28;20351;-62
2022/02/19 00:13:04;;;;;;;18.70;2.65;;;;;;;5.03;62.35;100398.00;5043733;28;20208;-61
2022/02/19 00:15:30;;;;;;;11.90;2.92;;;;;;;5.05;62.73;100433.63;5045243;28;20029;-61
2022/02/19 00:17:55;;;;;;;15.27;3.15;;;;;;;5.08;61.74;100479.72;5048326;28;20033;-62
2022/02/19 00:20:21;;;;;;;12.32;2.08;;;;;;;5.12;61.64;100441.38;5049004;28;20150;-62
2022/02/19 00:22:46;;;;;;;14.43;2.70;;;;;;;5.12;62.23;100413.47;5047105;28;20032;-63
2022/02/19 00:25:11;;;;;;;17.10;2.33;;;;;;;5.15;61.96;100457.81;5048129;28;20056;-62
2022/02/19 00:27:37;;;;;;;13.27;2.20;;;;;;;5.18;61.47;100477.84;5048276;28;20534;-60
2022/02/19 00:30:06;;;;;;;12.63;2.13;;;;;;;5.13;61.82;100509.25;5047376;28;20029;-61
2022/02/19 00:32:32;;;;;;;12.57;3.05;;;;;;;5.18;60.99;100543.13;5048063;28;20037;-62
2022/02/19 00:34:58;;;;;;;11.05;1.75;;;;;;;5.18;60.49;100517.00;5048064;28;20099;-62
2022/02/19 00:37:23;;;;;;;9.65;2.00;;;;;;;5.17;60.56;100510.03;5047184;28;20064;-61
2022/02/19 00:39:48;;;;;;;19.35;3.08;;;;;;;5.20;60.15;100515.22;5046968;28;20544;-63
2022/02/19 00:42:14;;;;;;;15.05;2.95;;;;;;;5.16;60.65;100503.97;5048529;28;20029;-62
2022/02/19 00:44:40;;;;;;;13.60;2.28;;;;;;;5.12;60.15;100545.84;5047140;28;20103;-61
2022/02/19 00:47:05;;;;;;;13.32;2.05;;;;;;;5.08;59.79;100515.44;5047556;28;20067;-61
2022/02/19 00:49:31;;;;;;;17.67;2.78;;;;;;;5.01;60.59;100507.69;5048103;28;20418;-62
2022/02/19 00:51:57;;;;;;;17.40;2.70;;;;;;;5.00;60.44;100545.13;5047301;28;20100;-62
2022/02/19 00:54:22;;;;;;;34.17;2.53;;;;;;;4.93;60.92;100549.59;5047550;28;20369;-62
2022/02/19 00:56:48;;;;;;;12.18;2.17;;;;;;;4.96;60.45;100517.34;5047597;28;20029;-61
2022/02/19 00:59:13;;;;;;;15.15;2.83;;;;;;;4.92;61.15;100532.22;5046627;28;20025;-62
2022/02/19 01:01:39;;;;;;;13.98;2.88;;;;;;;4.91;59.63;100558.34;5047718;28;20029;-61
2022/02/19 01:04:04;;;;;;;19.83;2.20;;;;;;;4.92;59.95;100621.00;5045544;28;20461;-61
2022/02/19 01:06:31;;;;;;;18.88;2.25;;;;;;;4.98;59.82;100546.91;5045081;28;20036;-61
2022/02/19 01:08:56;;;;;;;11.13;2.00;;;;;;;5.02;60.75;100539.88;5044479;28;20048;-61
2022/02/19 01:11:22;;;;;;;12.02;2.50;;;;;;;4.98;60.86;100570.41;5047048;28;20415;-62
2022/02/19 01:13:48;;;;;;;12.60;2.15;;;;;;;5.00;60.57;100584.31;5045946;28;20029;-61
2022/02/19 01:16:14;;;;;;;13.38;2.25;;;;;;;5.06;60.87;100565.94;5046165;28;20386;-61
2022/02/19 01:18:39;;;;;;;16.38;2.20;;;;;;;5.02;60.95;100605.16;5047563;28;20095;-62
2022/02/19 01:21:05;;;;;;;14.98;2.28;;;;;;;5.04;60.78;100609.50;5047599;28;20111;-61
2022/02/19 01:23:30;;;;;;;12.32;2.22;;;;;;;5.09;60.27;100639.91;5046097;28;20045;-62
2022/02/19 01:25:55;;;;;;;18.00;2.50;;;;;;;5.08;60.40;100625.97;5047258;28;20059;-62
2022/02/19 01:28:21;;;;;;;24.50;2.40;;;;;;;5.17;59.90;100624.97;5045870;28;20024;-63
2022/02/19 01:30:46;;;;;;;16.63;2.85;;;;;;;5.18;59.96;100647.63;5065932;28;20821;-62
2022/02/19 01:33:11;;;;;;;12.65;2.05;;;;;;;5.21;60.33;100642.31;5066705;28;20032;-61
2022/02/19 01:35:37;;;;;;;9.73;1.75;;;;;;;5.15;60.58;100621.53;5065540;28;20031;-62
2022/02/19 01:38:03;;;;;;;15.75;2.05;;;;;;;5.20;60.57;100661.50;5064922;28;20028;-61
2022/02/19 01:40:28;;;;;;;16.13;2.13;;;;;;;5.17;60.62;100666.78;5066853;28;20078;-62
2022/02/19 01:42:54;;;;;;;13.57;2.65;;;;;;;5.22;60.52;100664.09;5066328;28;20025;-62
2022/02/19 01:45:19;;;;;;;15.07;1.75;;;;;;;5.20;60.93;100697.25;5066762;28;20024;-63
2022/02/19 01:47:44;;;;;;;10.93;2.20;;;;;;;5.18;60.77;100645.00;5066597;28;20028;-63
2022/02/19 01:50:10;;;;;;;20.13;2.33;;;;;;;5.17;60.12;100672.00;5066705;28;20051;-61
2022/02/19 01:52:39;;;;;;;10.38;2.28;;;;;;;5.16;59.43;100665.06;5065976;28;20024;-62
2022/02/19 01:55:04;;;;;;;15.77;2.07;;;;;;;5.16;59.26;100706.84;5065800;28;20871;-62
2022/02/19 01:57:30;;;;;;;18.20;2.70;;;;;;;5.19;59.58;100746.00;5064415;28;20325;-61
2022/02/19 01:59:55;;;;;;;11.77;2.33;;;;;;;5.24;59.71;100689.31;5046482;28;20017;-62
2022/02/19 02:02:21;;;;;;;12.82;2.40;;;;;;;5.19;60.00;100727.72;5045627;28;20053;-61
2022/02/19 02:04:46;;;;;;;20.00;2.78;;;;;;;5.19;60.09;100717.25;5046335;28;20017;-63
2022/02/19 02:07:11;;;;;;;18.38;2.85;;;;;;;5.20;60.15;100757.31;5053862;22;20106;-59
2022/02/19 02:09:37;;;;;;;13.15;2.15;;;;;;;5.19;60.63;100727.72;5046628;28;20423;-61
2022/02/19 02:12:03;;;;;;;14.27;2.25;;;;;;;5.20;60.25;100720.75;5045740;28;20485;-61
2022/02/19 02:14:29;;;;;;;16.73;2.25;;;;;;;5.18;60.16;100720.75;5046112;28;20048;-60
2022/02/19 02:16:54;;;;;;;7.65;2.15;;;;;;;5.12;60.89;100734.75;5044867;28;20471;-61
2022/02/19 02:19:20;;;;;;;13.88;2.38;;;;;;;5.11;61.01;100737.38;5060422;28;20036;-62
2022/02/19 02:21:45;;;;;;;21.45;2.63;;;;;;;5.08;60.93;100771.41;5065776;28;20032;-61
2022/02/19 02:24:10;;;;;;;16.65;2.28;;;;;;;5.06;61.75;100730.47;5064215;28;20393;-61
2022/02/19 02:26:37;;;;;;;22.73;2.88;;;;;;;4.97;61.19;100764.53;5064812;28;20031;-61
2022/02/19 02:29:02;;;;;;;13.13;2.25;;;;;;;4.99;61.71;100743.63;5065061;28;20043;-62
2022/02/19 02:31:28;;;;;;;18.15;3.22;;;;;;;4.91;61.91;100754.19;5053815;28;20024;-62
2022/02/19 02:33:53;;;;;;;15.85;2.55;;;;;;;4.89;61.85;100753.31;5064199;28;20409;-62
2022/02/19 02:36:19;;;;;;;17.25;2.58;;;;;;;4.92;62.02;100802.91;5061257;28;20111;-60
2022/02/19 02:38:45;;;;;;;28.75;3.33;;;;;;;4.97;61.69;100789.78;5035569;28;20026;-63
2022/02/19 02:41:11;;;;;;;17.58;3.00;;;;;;;4.99;61.56;100814.13;5037361;28;20097;-61
2022/02/19 02:43:36;;;;;;;22.88;2.67;;;;;;;4.99;61.74;100756.69;5034804;28;20117;-61
2022/02/19 02:46:02;;;;;;;17.13;3.00;;;;;;;4.99;61.52;100773.22;5035858;28;20029;-61
2022/02/19 02:48:27;;;;;;;21.05;2.83;;;;;;;4.95;61.28;100794.16;5036740;28;20040;-61
2022/02/19 02:50:54;;;;;;;17.52;2.65;;;;;;;4.97;61.47;100797.63;5040876;28;20079;-61
2022/02/19 02:53:20;;;;;;;15.82;2.53;;;;;;;4.96;60.58;100827.25;5025027;28;20056;-61
2022/02/19 02:55:46;;;;;;;18.83;2.67;;;;;;;4.91;60.32;100791.56;5035558;28;20713;-62
2022/02/19 02:58:11;;;;;;;11.95;2.65;;;;;;;4.96;60.12;100809.81;5026141;28;20026;-62
2022/02/19 03:00:37;;;;;;;19.98;3.17;;;;;;;4.98;60.24;100807.19;5024704;28;20029;-62
2022/02/19 03:03:02;;;;;;;17.48;2.70;;;;;;;4.98;60.35;100795.00;5025603;28;20780;-62
2022/02/19 03:05:27;;;;;;;16.67;3.15;;;;;;;4.94;59.98;100806.38;5028433;28;20078;-61
2022/02/19 03:07:53;;;;;;;19.58;3.45;;;;;;;4.98;60.03;100818.50;5034539;28;20594;-61
2022/02/19 03:10:18;;;;;;;28.63;3.40;;;;;;;4.97;59.65;100813.28;5033129;28;20028;-62
2022/02/19 03:12:47;;;;;;;15.73;2.72;;;;;;;4.95;60.17;100878.59;5044826;28;20542;-62
2022/02/19 03:15:18;;;;;;;17.90;2.92;;;;;;;5.02;59.85;100814.09;5035782;28;20475;-62
2022/02/19 03:17:44;;;;;;;17.48;2.50;;;;;;;5.00;60.58;100837.63;5025171;28;20013;-62
2022/02/19 03:20:10;;;;;;;17.38;3.25;;;;;;;4.97;60.68;100826.34;5025484;28;20245;-62
2022/02/19 03:22:36;;;;;;;18.52;2.15;;;;;;;4.88;59.63;100830.78;5031948;28;20083;-61
2022/02/19 03:25:02;;;;;;;15.45;2.20;;;;;;;4.88;60.36;100875.16;5038635;28;20021;-60
2022/02/19 03:27:28;;;;;;;15.50;2.50;;;;;;;4.92;59.98;100900.41;5027935;28;20049;-61
2022/02/19 03:29:53;;;;;;;15.02;2.42;;;;;;;4.91;60.25;100885.59;5025271;28;20514;-62
2022/02/19 03:32:18;;;;;;;26.02;3.20;;;;;;;4.91;59.88;100866.47;5035108;28;20162;-62
2022/02/19 03:34:44;;;;;;;18.40;3.05;;;;;;;4.84;60.76;100883.91;5030254;28;20437;-62
2022/02/19 03:37:09;;;;;;;16.00;3.15;;;;;;;4.95;60.63;100870.75;5033935;28;20024;-61
2022/02/19 03:39:35;;;;;;;17.35;3.00;;;;;;;4.94;60.52;100887.31;5044822;28;20025;-61
2022/02/19 03:42:00;;;;;;;19.92;3.47;;;;;;;4.99;60.69;100888.13;5041116;28;20163;-62
2022/02/19 03:44:25;;;;;;;13.27;2.78;;;;;;;4.97;59.78;100909.91;5044439;28;20166;-62
2022/02/19 03:46:51;;;;;;;10.88;2.45;;;;;;;4.96;58.96;100893.38;5043436;28;20051;-60
2022/02/19 03:49:16;;;;;;;16.33;3.28;;;;;;;5.00;59.11;100902.06;5036315;28;20030;-61
2022/02/19 03:51:41;;;;;;;22.77;3.50;;;;;;;4.96;59.81;100905.59;5023656;28;20025;-62
2022/02/19 03:54:07;;;;;;;23.83;2.25;;;;;;;4.94;59.07;100926.50;5035283;28;20391;-62
2022/02/19 03:56:32;;;;;;;17.90;2.60;;;;;;;4.96;59.18;100903.81;5042904;28;20455;-61
2022/02/19 03:58:58;;;;;;;17.33;2.33;;;;;;;4.91;58.85;100898.63;5043560;28;20033;-61
2022/02/19 04:01:23;;;;;;;17.33;1.98;;;;;;;4.92;58.93;100929.13;5043766;28;20096;-61
2022/02/19 04:03:48;;;;;;;14.38;1.98;;;;;;;4.96;58.57;100924.72;5043770;28;20486;-61
2022/02/19 04:06:14;;;;;;;21.65;2.75;;;;;;;4.97;58.71;100946.47;5038913;28;20049;-61
2022/02/19 04:08:39;;;;;;;10.38;2.00;;;;;;;4.98;58.72;100962.13;5034885;28;20025;-60
2022/02/19 04:11:05;;;;;;;13.15;1.92;;;;;;;5.03;59.27;100956.88;5044103;28;20112;-63
2022/02/19 04:13:30;;;;;;;19.70;2.50;;;;;;;5.04;58.62;100969.94;5031010;28;20064;-62
2022/02/19 04:15:55;;;;;;;31.13;2.92;;;;;;;5.09;58.44;100987.31;5024078;28;20065;-62
2022/02/19 04:18:21;;;;;;;25.52;2.58;;;;;;;5.12;58.98;100989.88;5024807;28;20036;-61
2022/02/19 04:20:46;;;;;;;15.65;2.03;;;;;;;5.12;59.59;101016.00;5024385;28;20380;-61
2022/02/19 04:23:11;;;;;;;20.80;2.97;;;;;;;5.15;59.46;101002.94;5023316;28;20493;-64
2022/02/19 04:25:37;;;;;;;15.63;3.10;;;;;;;5.22;59.72;100977.59;5039491;28;20041;-61
2022/02/19 04:28:07;;;;;;;23.52;3.05;;;;;;;5.21;60.18;101017.69;5043488;28;20047;-61
2022/02/19 04:30:33;;;;;;;13.68;2.65;;;;;;;5.17;59.39;100990.69;5043511;28;20033;-61
2022/02/19 04:32:59;;;;;;;21.58;2.83;;;;;;;5.12;58.91;100993.34;5044142;28;20025;-61
2022/02/19 04:35:26;;;;;;;21.20;2.58;;;;;;;5.10;58.10;100989.03;5044549;28;20029;-61
2022/02/19 04:37:51;;;;;;;18.90;3.25;;;;;;;5.17;58.92;100991.56;5043056;28;20029;-61
2022/02/19 04:40:17;;;;;;;18.08;2.80;;;;;;;5.09;58.74;101018.66;5043155;28;20508;-62
2022/02/19 04:42:45;;;;;;;14.90;2.22;;;;;;;5.10;59.57;101022.97;5043421;28;20175;-61
2022/02/19 04:45:11;;;;;;;16.55;2.60;;;;;;;5.00;59.81;101038.72;5041991;28;20034;-60
2022/02/19 04:47:36;;;;;;;19.98;2.72;;;;;;;4.92;59.87;101025.75;5043520;28;20029;-61
2022/02/19 04:50:04;;;;;;;20.70;2.55;;;;;;;4.93;59.63;101044.88;5043003;28;20025;-61
2022/02/19 04:52:29;;;;;;;14.90;2.20;;;;;;;4.91;59.80;101020.53;5043677;28;20014;-62
2022/02/19 04:54:55;;;;;;;18.10;2.63;;;;;;;4.88;59.71;101057.09;5044135;28;20103;-60
2022/02/19 04:57:20;;;;;;;13.48;2.30;;;;;;;4.89;60.45;101046.66;5044157;28;20328;-61
2022/02/19 04:59:45;;;;;;;13.02;2.58;;;;;;;4.90;60.34;101061.44;5043517;28;20071;-62
2022/02/19 05:02:11;;;;;;;13.77;2.03;;;;;;;4.96;60.39;101046.59;5046786;28;20017;-63
2022/02/19 05:04:36;;;;;;;20.65;2.80;;;;;;;4.92;60.83;101070.13;5045939;28;20029;-64
2022/02/19 05:07:02;;;;;;;14.32;2.03;;;;;;;4.84;60.84;101037.97;5045305;28;20072;-63
2022/02/19 05:09:27;;;;;;;19.88;2.53;;;;;;;4.75;60.77;101075.44;5046781;28;20028;-62
2022/02/19 05:11:52;;;;;;;12.30;2.40;;;;;;;4.77;60.36;101060.66;5047089;28;20063;-61
2022/02/19 05:14:18;;;;;;;21.50;2.38;;;;;;;4.77;60.09;101075.44;5046112;28;20479;-62
2022/02/19 05:16:43;;;;;;;11.60;1.90;;;;;;;4.85;60.01;101072.78;5047444;28;20084;-60
2022/02/19 05:19:08;;;;;;;20.48;2.53;;;;;;;4.84;60.11;101063.22;5047027;28;20074;-62
2022/02/19 05:21:34;;;;;;;18.23;2.58;;;;;;;4.86;60.23;101098.00;5046168;28;20071;-62
2022/02/19 05:23:59;;;;;;;11.82;2.47;;;;;;;4.91;60.16;101068.38;5046301;28;20032;-62
2022/02/19 05:26:24;;;;;;;17.50;2.20;;;;;;;4.86;60.18;101118.91;5046584;28;20112;-61
2022/02/19 05:28:49;;;;;;;15.65;2.50;;;;;;;4.90;60.33;101086.66;5045229;28;20021;-62
2022/02/19 05:31:15;;;;;;;19.98;2.45;;;;;;;4.87;60.84;101076.22;5047028;28;20021;-62
2022/02/19 05:33:40;;;;;;;18.05;2.28;;;;;;;4.78;60.33;101098.94;5047675;28;20033;-62
2022/02/19 05:36:06;;;;;;;15.43;2.90;;;;;;;4.74;60.37;101110.28;5046485;28;20029;-62
2022/02/19 05:38:31;;;;;;;12.57;2.53;;;;;;;4.76;60.74;101078.94;5045203;28;20023;-61
2022/02/19 05:40:56;;;;;;;15.07;2.63;;;;;;;4.75;61.03;101095.44;5046817;28;20025;-61
2022/02/19 05:43:22;;;;;;;21.00;2.42;;;;;;;4.71;61.31;101081.56;5046931;28;20027;-61
2022/02/19 05:45:48;;;;;;;18.95;2.80;;;;;;;4.77;61.26;101085.88;5045801;28;20021;-62
2022/02/19 05:48:14;;;;;;;12.45;1.98;;;;;;;4.74;61.44;101094.59;5045383;28;20036;-62
2022/02/19 05:50:39;;;;;;;12.73;2.10;;;;;;;4.73;60.39;101102.44;5046397;28;20390;-62
2022/02/19 05:53:05;;;;;;;21.60;2.78;;;;;;;4.83;60.43;101092.81;5045629;28;20041;-63
2022/02/19 05:55:31;;;;;;;17.45;2.42;;;;;;;4.83;60.15;101100.63;5046486;28;20043;-62
2022/02/19 05:57:56;;;;;;;21.23;2.50;;;;;;;4.84;60.75;101094.56;5046434;28;20025;-62
2022/02/19 06:00:22;;;;;;;12.77;2.75;;;;;;;4.78;61.36;101091.09;5045825;28;20029;-62
2022/02/19 06:02:48;;;;;;;17.48;2.70;;;;;;;4.76;61.54;101099.81;5046670;28;20039;-62
2022/02/19 06:05:13;;;;;;;10.85;2.35;;;;;;;4.69;61.47;101096.34;5046375;28;20051;-61
2022/02/19 06:07:39;;;;;;;16.20;2.65;;;;;;;4.63;61.95;101104.22;5058103;28;20124;-62
2022/02/19 06:10:04;;;;;;;15.70;2.30;;;;;;;4.58;62.58;101122.53;5066444;28;20028;-64
2022/02/19 06:12:29;;;;;;;21.77;2.70;;;;;;;4.53;62.78;101124.28;5052125;28;20558;-61
2022/02/19 06:14:55;;;;;;;10.73;2.00;;;;;;;4.61;62.46;101148.59;5042498;28;20108;-63
2022/02/19 06:17:20;;;;;;;16.20;3.00;;;;;;;4.66;61.29;101125.09;5052296;28;20029;-62
2022/02/19 06:19:45;;;;;;;10.57;2.22;;;;;;;4.73;61.30;101116.34;5043532;28;20020;-62
2022/02/19 06:22:11;;;;;;;15.70;1.75;;;;;;;4.72;61.76;101119.00;5045759;28;20111;-64
2022/02/19 06:24:38;;;;;;;17.50;2.15;;;;;;;4.77;61.67;101132.88;5044988;28;20534;-62
2022/02/19 06:27:05;;;;;;;26.58;2.67;;;;;;;4.79;62.00;101129.38;5044495;28;20040;-62
2022/02/19 06:29:30;;;;;;;11.15;1.90;;;;;;;4.78;62.38;101143.31;5045207;28;20287;-61
2022/02/19 06:31:55;;;;;;;15.18;2.63;;;;;;;4.83;61.95;101161.56;5045143;28;20102;-62
2022/02/19 06:34:21;;;;;;;13.60;2.22;;;;;;;4.83;61.27;101139.81;5044976;28;20376;-61
2022/02/19 06:36:46;;;;;;;16.67;2.38;;;;;;;4.86;61.40;101147.63;5044927;28;20029;-62
2022/02/19 06:39:11;;;;;;;13.70;2.28;;;;;;;4.80;61.67;101143.31;5045553;28;20031;-61
2022/02/19 06:41:37;;;;;;;14.73;2.22;;;;;;;4.76;61.76;101170.31;5045277;28;20025;-61
2022/02/19 06:44:02;;;;;;;14.50;2.00;;;;;;;4.70;61.78;101179.03;5045087;28;20021;-61
2022/02/19 06:46:28;;;;;;;17.25;2.78;;;;;;;4.75;60.92;101171.16;5045735;28;20067;-62
2022/02/19 06:48:54;;;;;;;15.98;1.85;;;;;;;4.78;61.56;101176.38;5044502;28;20096;-63
2022/02/19 06:51:19;;;;;;;15.38;3.08;;;;;;;4.80;61.54;101188.56;5044238;28;20383;-63
2022/02/19 06:53:45;;;;;;;17.10;2.65;;;;;;;4.85;61.58;101193.75;5045596;28;20039;-63
2022/02/19 06:56:10;;;;;;;14.05;2.08;;;;;;;4.89;61.06;101184.16;5045484;28;20032;-61
2022/02/19 06:58:36;;;;;;;22.58;2.50;;;;;;;4.85;61.04;101192.91;5042970;28;20028;-64
2022/02/19 07:01:01;;;;;;;17.88;2.40;;;;;;;4.85;61.14;101198.13;5051692;28;20033;-61
2022/02/19 07:03:27;;;;;;;15.32;1.95;;;;;;;4.86;60.19;101207.69;5045294;28;20075;-62
2022/02/19 07:05:53;;;;;;;19.25;2.45;;;;;;;4.90;60.57;101204.19;5044045;28;20112;-61
2022/02/19 07:08:20;;;;;;;18.40;2.95;;;;;;;4.88;60.09;101203.34;5042746;28;20432;-61
2022/02/19 07:10:45;;;;;;;12.27;2.13;;;;;;;4.90;60.49;101219.84;5042555;28;20155;-63
2022/02/19 07:13:11;;;;;;;18.67;2.53;;;;;;;4.87;60.72;101212.03;5046051;28;20482;-65
2022/02/19 07:15:36;;;;;;;23.27;2.53;;;;;;;4.78;60.95;101226.88;5043466;28;20056;-61
2022/02/19 07:18:02;;;;;;;13.65;2.65;;;;;;;4.75;60.51;101228.59;5044558;28;20102;-62
2022/02/19 07:20:27;;;;;;;10.95;1.60;;;;;;;4.86;60.07;101212.91;5045292;28;20025;-61
2022/02/19 07:22:52;;;;;;;16.65;2.13;;;;;;;4.88;60.68;101232.91;5043720;28;20029;-62
2022/02/19 07:25:20;;;;;;;21.40;2.20;;;;;;;4.91;60.83;101219.84;5044857;28;20471;-62
2022/02/19 07:27:46;;;;;;;12.60;1.77;;;;;;;4.85;60.32;101235.53;5043924;28;20060;-62
2022/02/19 07:30:16;;;;;;;19.83;2.42;;;;;;;4.86;60.73;101231.19;5046235;28;20446;-62
2022/02/19 07:32:42;;;;;;;20.45;2.28;;;;;;;4.89;60.61;101220.72;5044779;28;20033;-61
2022/02/19 07:35:08;;;;;;;16.23;2.40;;;;;;;4.96;60.29;101222.44;5042865;28;20091;-62
2022/02/19 07:37:35;;;;;;;17.38;2.22;;;;;;;5.02;60.49;101232.88;5043027;28;20538;-61
2022/02/19 07:40:00;;;;;;;16.58;2.15;;;;;;;5.08;60.37;101236.34;5043304;28;20890;-61
2022/02/19 07:42:26;;;;;;;19.40;2.92;;;;;;;5.09;59.69;101249.34;5044016;28;20037;-63
2022/02/19 07:44:53;;;;;;;10.25;1.65;;;;;;;5.10;59.37;101240.66;5043383;28;20055;-61
2022/02/19 07:47:27;;;;;;;20.10;2.78;;;;;;;5.16;59.55;101250.22;5043222;28;20155;-62
2022/02/19 07:58:19;;;;;;;23.20;2.83;;;;;;;5.12;60.70;101257.19;5044047;28;21255;-61
2022/02/19 08:00:50;;;;;;;13.90;2.67;;;;;;;5.12;60.81;101269.41;5044363;28;20043;-65
2022/02/19 08:03:16;;;;;;;11.13;2.25;;;;;;;4.99;61.60;101266.81;5044410;28;20032;-61
2022/02/19 08:05:42;;;;;;;15.15;2.35;;;;;;;5.13;61.18;101277.22;5042444;28;20138;-61
2022/02/19 08:08:08;;;;;;;21.00;2.15;;;;;;;5.08;60.61;101284.19;5043134;28;20025;-62
2022/02/19 08:10:35;;;;;;;18.90;2.90;;;;;;;5.18;60.76;101279.84;5044021;28;20858;-63
2022/02/19 08:13:02;;;;;;;16.33;2.00;;;;;;;5.14;60.72;101284.19;5043363;28;20036;-62
2022/02/19 08:15:27;;;;;;;14.57;2.03;;;;;;;5.18;61.06;101285.91;5042727;28;20418;-62
2022/02/19 08:17:53;;;;;;;23.25;3.92;;;;;;;5.18;61.45;101279.84;5043002;28;20021;-63
2022/02/19 08:20:18;;;;;;;13.75;2.10;;;;;;;5.25;60.77;101286.75;5043834;28;20039;-62
2022/02/19 08:22:43;;;;;;;17.02;2.85;;;;;;;5.39;61.06;101286.69;5041821;28;20025;-62
2022/02/19 08:25:09;;;;;;;10.43;2.05;;;;;;;5.48;60.85;101285.75;5043505;28;20033;-63
2022/02/19 08:27:38;;;;;;;15.77;1.90;;;;;;;5.52;60.46;101311.03;5039935;28;20147;-62
2022/02/19 08:30:04;;;;;;;13.95;2.33;;;;;;;5.49;60.65;101305.81;5041550;28;20028;-61
2022/02/19 08:32:29;;;;;;;13.30;2.53;;;;;;;5.51;60.37;101309.28;5044320;28;20773;-61
2022/02/19 08:34:57;;;;;;;13.73;2.20;;;;;;;5.52;60.45;101308.41;5043814;28;20021;-62
2022/02/19 08:37:22;;;;;;;9.55;2.03;;;;;;;5.52;59.75;101303.19;5045626;28;20017;-61
2022/02/19 08:39:48;;;;;;;8.60;1.73;;;;;;;5.54;59.28;101317.09;5047664;28;20052;-62
2022/02/19 08:42:13;;;;;;;15.90;2.17;;;;;;;5.61;59.41;101310.09;5048034;28;20032;-62
2022/02/19 08:44:38;;;;;;;12.90;2.20;;;;;;;5.63;59.37;101337.09;5042881;28;20025;-62
2022/02/19 08:47:04;;;;;;;21.10;3.17;;;;;;;5.68;59.15;101321.38;5044873;28;20029;-63
2022/02/19 08:49:31;;;;;;;15.82;2.08;;;;;;;5.68;59.86;101331.84;5041716;28;20037;-60
2022/02/19 08:51:56;;;;;;;11.23;2.08;;;;;;;5.75;58.62;101320.47;5045802;28;20132;-63
2022/02/19 08:54:22;;;;;;;11.55;2.47;;;;;;;5.82;58.28;101323.94;5046987;28;20100;-62
2022/02/19 08:56:48;;;;;;;11.02;2.40;;;;;;;5.89;58.84;101311.66;5046759;28;20024;-62
2022/02/19 08:59:13;;;;;;;15.73;2.25;;;;;;;5.89;58.92;101325.63;5046740;28;20021;-63
2022/02/19 09:01:39;;;;;;;23.50;2.38;;;;;;;5.99;59.53;101326.41;5046664;28;20024;-62
2022/02/19 09:04:07;;;;;;;10.35;1.95;;;;;;;6.04;59.28;101337.78;5046237;28;20154;-63
2022/02/19 09:06:32;;;;;;;14.07;2.13;;;;;;;6.13;59.51;101343.81;5045487;28;20518;-62
2022/02/19 09:08:58;;;;;;;12.93;3.10;;;;;;;6.16;59.60;101344.66;5047288;28;20052;-61
2022/02/19 09:11:23;;;;;;;14.38;2.58;;;;;;;6.20;59.55;101350.72;5045138;28;20092;-62
2022/02/19 09:13:49;;;;;;;11.25;1.98;;;;;;;6.08;58.22;101375.22;5044455;28;20505;-62
2022/02/19 09:16:14;;;;;;;11.30;2.70;;;;;;;6.03;58.27;101358.69;5045772;28;20025;-65
2022/02/19 09:18:40;;;;;;;10.73;2.08;;;;;;;6.06;59.05;101358.69;5040901;28;20071;-61
2022/02/19 09:21:05;;;;;;;12.50;1.95;;;;;;;6.12;58.02;101356.03;5040922;28;20025;-62
2022/02/19 09:23:30;;;;;;;17.73;3.15;;;;;;;6.18;58.00;101321.09;5046159;28;20025;-62
2022/02/19 09:25:56;;;;;;;14.85;2.00;;;;;;;6.27;58.27;101352.44;5045120;28;20032;-61
2022/02/19 09:28:24;;;;;;;13.52;2.33;;;;;;;6.41;58.10;101348.84;5041469;28;20068;-62
2022/02/19 09:30:49;;;;;;;12.70;2.70;;;;;;;6.49;57.48;101370.59;5042507;28;20015;-61
2022/02/19 09:33:15;;;;;;;8.15;1.90;;;;;;;6.35;57.04;101369.84;5047413;28;20393;-61
2022/02/19 09:35:40;;;;;;;17.05;2.13;;;;;;;6.36;57.73;101372.44;5047242;28;20524;-61
2022/02/19 09:38:06;;;;;;;13.45;2.55;;;;;;;6.43;57.22;101362.78;5044936;28;20017;-62
2022/02/19 09:40:32;;;;;;;16.30;2.50;;;;;;;6.51;57.67;101386.28;5044845;28;20028;-61
2022/02/19 09:42:57;;;;;;;8.10;1.85;;;;;;;6.60;57.95;101369.63;5041632;28;20367;-61
2022/02/19 09:45:28;;;;;;;16.85;2.58;;;;;;;6.77;58.00;101361.63;5046166;28;20119;-61
2022/02/19 09:47:58;;;;;;;13.10;2.92;;;;;;;6.84;57.17;101405.22;5045176;28;20040;-61
2022/02/19 09:50:27;;;;;;;5.63;1.30;;;;;;;6.76;56.34;101371.22;5046266;28;20029;-61
2022/02/19 09:52:52;;;;;;;13.70;2.25;;;;;;;6.93;56.62;101370.19;5035953;28;20075;-61
2022/02/19 09:55:18;;;;;;;16.73;2.20;;;;;;;7.03;56.77;101374.47;5035355;28;20029;-61
2022/02/19 09:57:43;;;;;;;10.25;2.03;;;;;;;7.15;56.19;101377.81;5041561;28;20064;-61
2022/02/19 10:00:09;;;;;;;10.10;1.95;;;;;;;7.10;56.02;101379.63;5051741;28;20024;-63
2022/02/19 10:02:35;;;;;;;13.07;2.38;;;;;;;6.97;56.40;101368.41;5047129;28;20356;-61
2022/02/19 10:05:11;;;;;;;12.18;1.80;;;;;;;6.85;56.26;101374.63;5045013;28;20029;-61
2022/02/19 10:07:36;;;;;;;13.65;2.08;;;;;;;7.06;56.16;101389.28;5046317;28;20123;-62
2022/02/19 10:10:02;;;;;;;11.38;2.33;;;;;;;7.16;55.94;101401.38;5044253;28;20487;-64
2022/02/19 10:12:43;;;;;;;19.90;2.40;;;;;;;7.18;56.39;101398.75;5046462;28;20079;-65
2022/02/19 10:15:09;;;;;;;13.45;1.77;;;;;;;7.25;56.84;101397.81;5045735;28;20073;-63
2022/02/19 10:17:37;;;;;;;17.08;2.55;;;;;;;7.30;55.97;101398.63;5050611;28;20033;-61
2022/02/19 10:20:05;;;;;;;7.80;2.13;;;;;;;7.15;55.66;101399.66;5046200;28;20508;-62
2022/02/19 10:22:35;;;;;;;12.93;2.28;;;;;;;7.22;56.30;101410.09;5040672;28;20036;-61
2022/02/19 10:25:04;;;;;;;9.45;1.85;;;;;;;7.29;55.68;101428.34;5032314;28;20035;-62
2022/02/19 10:27:45;;;;;;;13.85;2.85;;;;;;;7.45;55.53;101417.69;5024743;28;20033;-63
2022/02/19 10:30:12;;;;;;;9.30;2.20;;;;;;;7.52;55.34;101421.97;5026797;28;20037;-63
2022/02/19 10:33:07;;;;;;;16.48;2.38;;;;;;;7.60;55.71;101429.75;5026255;28;20030;-62
2022/02/19 10:35:40;;;;;;;13.20;1.83;;;;;;;7.71;56.01;101403.41;5032213;28;20036;-62
2022/02/19 10:38:10;;;;;;;12.05;2.50;;;;;;;7.71;57.06;101387.66;5045452;28;20037;-63
2022/02/19 10:40:43;;;;;;;16.05;2.67;;;;;;;7.73;55.73;101391.13;5044615;28;20479;-62
2022/02/19 10:43:12;;;;;;;15.48;2.63;;;;;;;7.70;54.16;101375.41;5045133;28;20167;-62
2022/02/19 10:45:54;;;;;;;18.50;2.00;;;;;;;7.57;54.70;101404.44;5044612;28;20071;-62
2022/02/19 10:48:25;;;;;;;12.55;2.33;;;;;;;7.49;56.57;101387.91;5045408;28;20107;-61
2022/02/19 10:50:51;;;;;;;10.88;2.20;;;;;;;7.54;57.53;101404.47;5044976;28;20404;-62
2022/02/19 10:53:26;;;;;;;20.20;2.70;;;;;;;7.63;56.85;101406.13;5038941;28;20025;-63
2022/02/19 10:55:53;;;;;;;10.90;2.42;;;;;;;7.62;55.87;101414.88;5029285;28;21541;-61
2022/02/19 10:58:19;;;;;;;11.73;1.95;;;;;;;7.64;55.43;101409.59;5031097;28;20044;-61
2022/02/19 11:00:45;;;;;;;13.88;1.73;;;;;;;7.74;56.12;101406.00;5036027;28;20036;-62
2022/02/19 11:03:10;;;;;;;12.48;1.65;;;;;;;7.72;54.41;101410.38;5039653;28;20025;-61
2022/02/19 11:05:36;;;;;;;12.13;1.77;;;;;;;7.81;54.38;101396.28;5044554;28;20021;-61
2022/02/19 11:08:02;;;;;;;16.23;2.15;;;;;;;7.86;55.72;101406.72;5039993;28;20754;-62
2022/02/19 11:10:28;;;;;;;12.50;2.50;;;;;;;7.98;54.13;101403.94;5030254;28;20029;-62
2022/02/19 11:12:54;;;;;;;12.70;2.58;;;;;;;7.90;54.80;101401.41;5026557;28;20021;-63
2022/02/19 11:15:20;;;;;;;15.93;2.22;;;;;;;7.83;54.30;101407.63;5029260;28;20024;-62
2022/02/19 11:17:47;;;;;;;15.25;2.17;;;;;;;7.94;55.13;101412.69;5040521;28;20025;-62
2022/02/19 11:20:13;;;;;;;9.13;2.20;;;;;;;8.12;54.36;101408.13;5044243;28;20507;-61
2022/02/19 11:22:39;;;;;;;19.80;2.33;;;;;;;8.12;54.10;101402.88;5043041;28;20040;-63
2022/02/19 11:25:09;;;;;;;14.23;2.30;;;;;;;8.31;54.22;101404.28;5044215;28;20108;-63
2022/02/19 11:27:40;;;;;;;14.90;2.95;;;;;;;8.18;52.66;101400.13;5043601;28;20063;-61
2022/02/19 11:30:07;;;;;;;11.05;1.83;;;;;;;8.26;52.95;101390.38;5044001;28;20037;-61